Terminal Aerodrome Forecast
Issued by NWS Sioux Falls, SD

Home | Current Version | Previous Version | Graphics & Text | Print | Product List | Glossary On
Versions: 1 2 3 4 5 6 7 8 9 10 11 12 13 14 15 16
000
FTUS43 KFSD 162216 AAA
TAFHON
TAF AMD
KHON 162216Z 1622/1718 33005KT P6SM -SHRA SCT007 OVC035
     FM162300 33012KT 6SM -SHRA OVC020
     FM170100 33011KT P6SM VCSH OVC030
     FM170800 31010KT P6SM SCT030
     FM171600 32010KT P6SM FEW140=

USA.gov is the U.S. government's official web portal to all federal, state and local government web resources and services.